nws-alerts: Checking more than four warning/county codes can delay the loading of your pages. You should use a cron job to get the data.

Nearby METAR Reports

 

KFCI - Richmond/Chester, Virginia, USA
Distance from station: ESE 7mi, 11km
Updated: Fri, 27-May-2022 7:56pm EDT
Clear
Clear
 Wind from S
Wind: S 9 mph , 15 km/h
Temperature: 73°F , 23°C
Dew Point: 72°F , 22°C
Humidity: 94%
Barometer: 29.78 inHg , 1008.5 hPa
Clouds: Clear
Visibility: 10 miles , 16 km
2022/05/27 23:56 KFCI 272356Z AUTO 19008KT 10SM CLR 23/22 A2978 RMK AO2 LTG DSNT N SLP092 6//// T02330217 10250 20206 PNO $
KRIC - Richmond, Virginia, USA
Distance from station: ENE 19mi, 30km
Updated: Fri, 27-May-2022 7:54pm EDT
Mostly cloudy
Mostly cloudy
 Wind from S
Wind: S 9 mph , 15 km/h
Temperature: 75°F , 24°C
Dew Point: 72°F , 22°C
Humidity: 89%
Barometer: 29.76 inHg , 1007.8 hPa
Clouds: Mostly cloudy
Visibility: 10 miles , 16 km
Cloud details: Mostly cloudy 1900 ft
Mostly cloudy 8500 ft
Mostly cloudy 30000 ft
2022/05/27 23:54 KRIC 272354Z 17008KT 10SM BKN019 BKN085 BKN300 24/22 A2976 RMK AO2 SLP082 60000 T02390217 10250 20200 56012
 
KPTB - Petersburg, Virginia, USA
Distance from station: SSE 19mi, 31km
Updated: Fri, 27-May-2022 8:15pm EDT
Clear
Clear
 Wind from calm
Wind: Calm
Temperature: 73°F , 23°C
Dew Point: 68°F , 20°C
Humidity: 83%
Barometer: 29.79 inHg , 1008.8 hPa
Clouds: Clear
Visibility: 10 miles , 16 km
2022/05/28 00:15 KPTB 280015Z AUTO 00000KT 10SM CLR 23/20 A2979 RMK AO2 T02300203
KOFP - Richmond/Hanover, Virginia, USA
Distance from station: NNE 22mi, 36km
Updated: Fri, 27-May-2022 7:54pm EDT
Thunderstorm, Overcast
Thunderstorm, Overcast
 Wind from varies
Wind: varies 5 mph , 7 km/h
Temperature: 73°F , 23°C
Dew Point: 70°F , 21°C
Humidity: 89%
Barometer: 29.77 inHg , 1008.1 hPa
Summary: Thunderstorm
Clouds: Overcast
Visibility: 10 miles , 16 km
Cloud details: Few Clouds 2400 ft
Partly cloudy 3100 ft
Overcast 10000 ft
2022/05/27 23:54 KOFP 272354Z AUTO VRB04KT 10SM TS FEW024 SCT031 OVC100 23/21 A2977 RMK AO2 TSB50 SLP079 60000 T02330211 10250 20206 55010
 
KW96 - Quinton, Virginia, USA
Distance from station: E 28mi, 46km
Updated: Fri, 27-May-2022 7:55pm EDT
Overcast
Overcast
 Wind from SE
Wind: SE 5 mph , 7 km/h
Temperature: 73°F , 23°C
Dew Point: 72°F , 22°C
Humidity: 94%
Barometer: 29.77 inHg , 1008.1 hPa
Clouds: Overcast
Visibility: 10 miles , 16 km
Cloud details: Mostly cloudy 2000 ft
Mostly cloudy 2800 ft
Overcast 4600 ft
2022/05/27 23:55 KW96 272355Z AUTO 13004KT 10SM BKN020 BKN028 OVC046 23/22 A2977 RMK AO1 60002 T02300216 10241 20197
KBKT - Blackstone Army, Virginia, USA
Distance from station: SW 30mi, 48km
Updated: Fri, 27-May-2022 7:56pm EDT
Clear
Clear
 Wind from SSW
Wind: SSW 12 mph , 19 km/h
Temperature: 73°F , 23°C
Dew Point: 66°F , 19°C
Humidity: 78%
Barometer: 29.77 inHg , 1008.1 hPa
Clouds: Clear
Visibility: 9 miles , 14 km
2022/05/27 23:56 KBKT 272356Z AUTO 20010KT 9SM CLR 23/19 A2977 RMK AO2 LTG DSNT N SLP081 T02250192 10258 20220 55004 $
 
KW81 - Crewe, Virginia, USA
Distance from station: SW 30mi, 49km
Updated: Fri, 27-May-2022 7:55pm EDT
Clear
Clear
 Wind from SSW
Wind: SSW 6 mph , 9 km/h, Gust: 16 mph , 26 km/h
Temperature: 72°F , 22°C
Dew Point: 64°F , 18°C
Humidity: 78%
Barometer: 29.78 inHg , 1008.5 hPa
Clouds: Clear
Visibility: 10 miles , 16 km
2022/05/27 23:55 KW81 272355Z AUTO 20005G14KT 10SM CLR 22/18 A2978 RMK AO1 T02210177 10246 20211
K7W4 - Bumpass, Virginia, USA
Distance from station: N 38mi, 61km
Updated: Fri, 27-May-2022 7:55pm EDT
Overcast
Overcast
 Wind from SSW
Wind: SSW 8 mph , 13 km/h
Temperature: 70°F , 21°C
Dew Point: 68°F , 20°C
Humidity: 94%
Barometer: 29.77 inHg , 1008.1 hPa
Clouds: Overcast
Visibility: 10 miles , 16 km
Cloud details: Partly cloudy 1900 ft
Overcast 2500 ft
2022/05/27 23:55 K7W4 272355Z AUTO 21007KT 10SM SCT019 OVC025 21/20 A2977 RMK AO1 P0001 60002 T02100204 10248 20206
 
KFVX - Farmville, Virginia, USA
Distance from station: W 43mi, 69km
Updated: Fri, 27-May-2022 7:55pm EDT
Heavy rain, Overcast
Heavy rain, Overcast
 Wind from NNW
Wind: NNW 5 mph , 7 km/h
Temperature: 66°F , 19°C
Dew Point: 64°F , 18°C
Humidity: 94%
Barometer: 29.80 inHg , 1009.1 hPa
Summary: Heavy rain
Clouds: Overcast
Visibility: 5 miles , 8 km
Cloud details: Partly cloudy 1100 ft
Mostly cloudy 2900 ft
Overcast 4600 ft
2022/05/27 23:55 KFVX 272355Z AUTO 34004KT 5SM +RA SCT011 BKN029 OVC046 19/18 A2980 RMK AO2 LTG DSNT W THRU NE P0009 60009 T01870175 10262 20187
KW31 - Kenbridge, Virginia, USA
Distance from station: SW 43mi, 70km
Updated: Fri, 27-May-2022 7:55pm EDT
Clear
Clear
 Wind from S
Wind: S 7 mph , 11 km/h
Temperature: 72°F , 22°C
Dew Point: 66°F , 19°C
Humidity: 83%
Barometer: 29.79 inHg , 1008.8 hPa
Clouds: Clear
Visibility: 10 miles , 16 km
2022/05/27 23:55 KW31 272355Z AUTO 19006KT 10SM CLR 22/19 A2979 RMK AO1 T02170186 10250 20213
 
KLKU - Louisa, Virginia, USA
Distance from station: NNW 44mi, 72km
Updated: Fri, 27-May-2022 7:55pm EDT
Thunderstorm, Overcast
Thunderstorm, Overcast
 Wind from W
Wind: W 13 mph , 20 km/h, Gust: 21 mph , 33 km/h
Temperature: 70°F , 21°C
Dew Point: 68°F , 20°C
Humidity: 94%
Barometer: 29.79 inHg , 1008.8 hPa
Summary: Thunderstorm
Clouds: Overcast
Visibility: 10 miles , 16 km
Cloud details: Mostly cloudy 2700 ft
Mostly cloudy 4400 ft
Overcast 7500 ft
2022/05/27 23:55 KLKU 272355Z AUTO 26011G18KT 10SM TS BKN027 BKN044 OVC075 21/20 A2979 RMK AO2 LTG DSNT ALQDS T02060202 10238 20198 402380168
KLVL - Lawrenceville, Virginia, USA
Distance from station: S 46mi, 75km
Updated: Fri, 27-May-2022 7:55pm EDT
Partly cloudy
Partly cloudy
 Wind from S
Wind: S 9 mph , 15 km/h
Temperature: 73°F , 23°C
Dew Point: 68°F , 20°C
Humidity: 83%
Barometer: 29.80 inHg , 1009.1 hPa
Clouds: Partly cloudy
Visibility: 10 miles , 16 km
Cloud details: Partly cloudy 12000 ft
2022/05/27 23:55 KLVL 272355Z AUTO 19008KT 10SM SCT120 23/20 A2980 RMK AO1 P0001 60001 T02320200 10252 20212
 
KAKQ - Norfolk/Wakefld, Virginia, USA
Distance from station: SE 47mi, 75km
Updated: Fri, 27-May-2022 7:54pm EDT
Mostly cloudy
Mostly cloudy
 Wind from S
Wind: S 8 mph , 13 km/h
Temperature: 75°F , 24°C
Dew Point: 68°F , 20°C
Humidity: 78%
Barometer: 29.79 inHg , 1008.8 hPa
Clouds: Mostly cloudy
Visibility: 10 miles , 16 km
Cloud details: Partly cloudy 4200 ft
Mostly cloudy 4900 ft
2022/05/27 23:54 KAKQ 272354Z AUTO 18007KT 150V230 10SM SCT042 BKN049 24/20 A2979 RMK AO2 SLP087 60000 T02390200 10244 20206 56009
KFYJ - West Point, Virginia, USA
Distance from station: E 48mi, 78km
Updated: Fri, 27-May-2022 7:55pm EDT

 Wind from SSE
Wind: SSE 8 mph , 13 km/h
Temperature: 73°F , 23°C
Dew Point: 70°F , 21°C
Humidity: 89%
Barometer: 29.79 inHg , 1008.8 hPa
2022/05/27 23:55 KFYJ 272355Z AUTO 16007KT 23/21 A2979 RMK AO1 60004 T02300210 10239 20205